WetterOnline ( https://www.wetteronline.de )

Wetter aktuell Westerwald

Aktuelles Wetter: Bad Marienberg (555m)

6-stündlich | Neueste Meldungen
Ortszeit Temperatur Wetter
Mo, 06.02. 19:00 -0.6° C wolkenlos
Mo, 06.02. 13:00 2.1° C wolkig
Mo, 06.02. 7:00 -1.7° C bewölkt
Mo, 06.02. 1:00 1.0° C bewölkt
So, 05.02. 19:00 2.2° C wolkig
So, 05.02. 13:00 2.7° C Sprühregen
So, 05.02. 7:00 2.1° C Nebel
So, 05.02. 1:00 0.6° C bewölkt
Ortszeit Temperatur Wetter
Di, 07.02. 0:00 -2.2° C leicht bewölkt
Mo, 06.02. 23:50 -2.2° C leicht bewölkt
Mo, 06.02. 23:40 -2.1° C wolkig
Mo, 06.02. 23:30 -2.1° C wolkig
Mo, 06.02. 23:20 -2.1° C wolkig
Mo, 06.02. 23:10 -1.9° C bewölkt
Mo, 06.02. 23:00 -1.6° C bedeckt
Mo, 06.02. 22:30 -1.9° C leicht bewölkt
Mo, 06.02. 22:00 -1.8° C wolkenlos
Mo, 06.02. 21:30 -1.4° C leicht bewölkt
Mo, 06.02. 21:00 -0.8° C wolkig
Ortszeit Relative Feuchte Sichtweite
Mo, 06.02. 19:00 84% 45 km
Mo, 06.02. 13:00 88% 55 km
Mo, 06.02. 7:00 100% 27 km
Mo, 06.02. 1:00 - 13 km
So, 05.02. 19:00 100% 35 km
So, 05.02. 13:00 100% 11 km
So, 05.02. 7:00 - 0.5 km
So, 05.02. 1:00 96% 40 km
Ortszeit Relative Feuchte Sichtweite
Di, 07.02. 0:00 91% 45 km
Mo, 06.02. 23:50 91% -
Mo, 06.02. 23:40 91% -
Mo, 06.02. 23:30 90% 45 km
Mo, 06.02. 23:20 90% -
Mo, 06.02. 23:10 92% -
Mo, 06.02. 23:00 90% 35 km
Mo, 06.02. 22:30 92% 30 km
Mo, 06.02. 22:00 89% 35 km
Mo, 06.02. 21:30 88% 35 km
Mo, 06.02. 21:00 90% 30 km
Ortszeit Niederschlagsmenge Niederschlagsart
Mo, 06.02. 19:00 0.0 l/m2 in 12 Std. -
Mo, 06.02. 13:00 0.0 l/m2 in 6 Std. -
Mo, 06.02. 7:00 0.1 l/m2 in 12 Std. -
Mo, 06.02. 1:00 0.1 l/m2 in 6 Std. Regen
So, 05.02. 19:00 6 l/m2 in 12 Std. Regen
So, 05.02. 13:00 5 l/m2 in 6 Std. Regen
So, 05.02. 7:00 0.7 l/m2 in 12 Std. Regen
So, 05.02. 1:00 0.0 l/m2 in 6 Std. -
Ortszeit Niederschlagsmenge Niederschlagsart
Di, 07.02. 0:00 0.0 l/m2 in 1 Std. -
Mo, 06.02. 23:50 keine Meldung -
Mo, 06.02. 23:40 keine Meldung -
Mo, 06.02. 23:30 0.0 l/m2 in 30 Min -
Mo, 06.02. 23:20 keine Meldung -
Mo, 06.02. 23:10 keine Meldung -
Mo, 06.02. 23:00 0.0 l/m2 in 1 Std. -
Mo, 06.02. 22:30 0.0 l/m2 in 30 Min -
Mo, 06.02. 22:00 0.0 l/m2 in 1 Std. -
Mo, 06.02. 21:30 0.0 l/m2 in 30 Min -
Mo, 06.02. 21:00 0.0 l/m2 in 1 Std. -
Ortszeit Stärke Spitze Richtung
km/h Bft. km/h Grad Sektor
Mo, 06.02. 19:00 9 2 33 40° NO
Mo, 06.02. 13:00 11 2 22 340° N
Mo, 06.02. 7:00 7 2 25 10° N
Mo, 06.02. 1:00 14 3 36 350° N
So, 05.02. 19:00 18 3 36 340° N
So, 05.02. 13:00 14 3 32 320° NW
So, 05.02. 7:00 7 2 11 250° W
So, 05.02. 1:00 4 1 11 120° SO
Ortszeit Stärke Spitze Richtung
km/h Bft. km/h Grad Sektor
Di, 07.02. 0:00 15 3 31 70° O
Mo, 06.02. 23:50 15 3 - 70° O
Mo, 06.02. 23:40 18 3 - 70° O
Mo, 06.02. 23:30 14 3 25 80° O
Mo, 06.02. 23:20 14 3 - 80° O
Mo, 06.02. 23:10 14 3 - 80° O
Mo, 06.02. 23:00 13 3 22 80° O
Mo, 06.02. 22:30 9 2 17 70° O
Mo, 06.02. 22:00 14 3 29 40° NO
Mo, 06.02. 21:30 17 3 28 40° NO
Mo, 06.02. 21:00 14 3 22 50° NO
Ortszeit Untergrenze Bedeckung Gattung
total tief tief mittel hoch
Mo, 06.02. 19:00 - 0/8 0/8 - - -
Mo, 06.02. 13:00 390 m 7/8 2/8 - - -
Mo, 06.02. 7:00 6000 m 7/8 7/8 - - -
Mo, 06.02. 1:00 60 m 7/8 7/8 - - -
So, 05.02. 19:00 90 m 6/8 6/8 - - -
So, 05.02. 13:00 90 m 7/8 7/8 - - -
So, 05.02. 7:00 <30 m 8/8 0/8 - - -
So, 05.02. 1:00 1350 m 7/8 7/8 - - -
Ortszeit Bedeckungsgrad in Achtel und Wolkenuntergrenze
Di, 07.02. 0:00 4(390m)
Mo, 06.02. 23:50 4(390m)
Mo, 06.02. 23:40 5
Mo, 06.02. 23:30 6(360m)
Mo, 06.02. 23:20 6(360m)
Mo, 06.02. 23:10 7
Mo, 06.02. 23:00 8(450m)
Mo, 06.02. 22:30 4(510m)
Mo, 06.02. 22:00 keine Wolken
Mo, 06.02. 21:30 2(570m)
Mo, 06.02. 21:00 4(510m) 5(630m)
Ortszeit Luftdruck NN (hPa) Tendenz (hPa in 3 Std.)
Mo, 06.02. 19:00 1040 0,0
Mo, 06.02. 13:00 1039 - 1,1
Mo, 06.02. 7:00 1041 0,0
Mo, 06.02. 1:00 1041 + 1,0
So, 05.02. 19:00 1038 + 2,6
So, 05.02. 13:00 1035 - 0,8
So, 05.02. 7:00 1036 - 0,2
So, 05.02. 1:00 1039 - 0,2
Ortszeit Luftdruck NN (hPa) Tendenz (hPa in 3 Std.)
Di, 07.02. 0:00 1040 0,0
Mo, 06.02. 23:50 1040 keine Meldung
Mo, 06.02. 23:40 1040 keine Meldung
Mo, 06.02. 23:30 1040 0,0
Mo, 06.02. 23:20 1040 keine Meldung
Mo, 06.02. 23:10 1040 keine Meldung
Mo, 06.02. 23:00 1040 + 0,3
Mo, 06.02. 22:30 1041 + 0,6
Mo, 06.02. 22:00 1040 + 0,4
Mo, 06.02. 21:30 1040 + 0,2
Mo, 06.02. 21:00 1040 + 0,6
Ortszeit Schneehöhe (cm)
Mo, 06.02. 19:00 0
Mo, 06.02. 13:00 0
Mo, 06.02. 7:00 0
Mo, 06.02. 1:00 0
So, 05.02. 19:00 0
So, 05.02. 13:00 0
So, 05.02. 7:00 0
So, 05.02. 1:00 0
Ortszeit Schneehöhe (cm)
Di, 07.02. 0:00 0
Mo, 06.02. 23:50 0
Mo, 06.02. 23:40 0
Mo, 06.02. 23:30 0
Mo, 06.02. 23:20 0
Mo, 06.02. 23:10 0
Mo, 06.02. 23:00 0
Mo, 06.02. 22:30 0
Mo, 06.02. 22:00 0
Mo, 06.02. 21:30 0
Mo, 06.02. 21:00 0
Link zu dieser Seite / Seite empfehlen

Das Wetter in ...